Occum, Connecticut
Current Conditions -  °F | °C
As of 1:52 AM on Wednesday 28 Jan 2015 (Local Time) from KIJD Reporting Station
Light Snow Light Snow  
Wind Chill:   Ceiling: 4600
Heat Index: 14°   Visibility: 6mi
Dew Point:   Wind: 9mph
Humidity: 64%   Direction: 320°NW
Pressure: 29.76"   Gusts: 18mph
Location:  41.5523°N, 72.0921°W
Report Text: KIJD 280652Z AUTO 32008G16KT 6SM -SN BKN046 OVC070 M10/M16 A2976 RMK AO2 SNB12 SLP081 P0000 T11001156
Loading
Personal Weather Stations






























Interactive Weather Map New forecast layout! Learn more

10-Day Weather Forecast

Advertisements
Track Severe Weather on mobile